Nederland, CO

12:24 PM MDT on August 29, 2014 (GMT -0600)
Erie Municipal Airport | Change Station
CLOSE
Current Station
Airport
Location: Erie,
Elevation: 5128 ft
Nearby Weather Stations

Elev 5128 ft 40.01 °N, 105.05 °W | Updated 9 minutes ago

Scattered Clouds
Scattered Clouds
77 °F
Feels Like 77 °F
N
10
Wind Variable Wind from NNE
Gusts 17 mph

Today
High -- | Low -- °F
--% Chance of Precip.
Yesterday
High -- | Low -- °F
Precip. -- in
6:27 AM 7:37 PM
Waxing Crescent, 15% visible
Pressure 30.10 in
Visibility 10.0 miles
Clouds Scattered Clouds 9500 ft
Scattered Clouds 11000 ft
Dew Point 44 °F
Humidity 30%
Rainfall 0.00 in
Snow Depth 0 in , 0 in , 0 in
UV 8 out of 12
Pollen 10.40 out of 12
Ozone Good
PM2.5 Good
Flu Activity Not available.
METAR KEIK 291815Z AUTO 03009G15KT 10SM SCT095 SCT110 25/06 A3010 RMK AO2 T02510064

More Conditions Fewer Conditions

Pressure 30.10 in
Visibility 10.0 miles
Clouds Scattered Clouds 9500 ft
Scattered Clouds 11000 ft
Dew Point 44 °F
Humidity 30%
Rainfall 0.00 in
Snow Depth 0 in , 0 in , 0 in
UV 8 out of 12
Pollen 10.40 out of 12
Ozone Good
PM2.5 Good
Flu Activity Not available.
METAR KEIK 291815Z AUTO 03009G15KT 10SM SCT095 SCT110 25/06 A3010 RMK AO2 T02510064

More Conditions Fewer Conditions

Nowcast | as of 11:52 am MDT on August 29, 2014

Isolated showers and thunderstorms developing over the foothills of Larimer...Boulder and Jefferson counties...will drift southeast across the urban corridor through early this afternoon. The storms will produce dangerous cloud to ground lightning...some brief light to moderate rainfall and wind gusts to 35 mph.

×

10-Day Weather Forecast

Almanac

Astronomy

Aug. 29, 2014 Rise Set
Actual Time 6:27 AM MDT 7:37 PM MDT
Civil Twilight 5:59 AM MDT 8:05 PM MDT
Nautical Twilight 5:25 AM MDT 8:39 PM MDT
Astronomical Twilight 4:50 AM MDT 9:13 PM MDT
Moon 10:18 AM MDT 9:37 PM MDT
Length of Visible Light 14h 06m
Length of Day
13h 10m
Tomorrow will be 2m 31s shorter.
Waxing Crescent, 15% of the Moon is Illuminated
Today
Waxing Crescent
Sep 2
First Quarter
Sep 8
Full
Sep 15
Last Quarter
Sep 24
New

Today's Extremes

State Highs State Lows

Community

WunderPhotos

Upload Photos

1,748,310 photos uploaded!

Nearby

Air Quality

  Air Quality AQ Index Pollutant
Yesterday Good
OZONE
Yesterday Good
PM10
Current Good
OZONE
Current Good
PM2.5
Friday Moderate
OZONE
Friday Good
PM2.5

Snow Depth

Station Depth Elevation
Niwot 0 in 9910 ft
University Camp 0 in 10300 ft
Wild Basin 0 in 9560 ft
Loveland Basin 1 in 11400 ft
Jackwhacker Gulch 0 in 10960 ft

Earthquake Activity

City Distance Mag. Time & Date
No recent earthquake activity has been reported nearby.
Minimum magnitude displayed is 2.5.

Coastal Water Temperatures

Place Temperature
No Stations Reporting

Nearby Weather Stations